createdAt,value
2023-05-07T00:05:48.818Z,16.50
2023-05-07T00:25:48.570Z,24.20
2023-05-07T00:45:48.414Z,15.40
2023-05-07T01:05:48.004Z,18.90
2023-05-07T01:25:47.674Z,20.90
2023-05-07T01:45:47.418Z,16.00
2023-05-07T02:05:47.177Z,17.00
2023-05-07T02:25:46.868Z,15.10
2023-05-07T02:45:46.612Z,14.10
2023-05-07T03:05:46.295Z,9.60
2023-05-07T03:25:46.031Z,12.00
2023-05-07T03:45:45.765Z,13.90
2023-05-07T04:05:45.479Z,13.20
2023-05-07T04:25:45.185Z,13.20
2023-05-07T04:45:44.953Z,11.80
2023-05-07T05:05:44.645Z,15.60
2023-05-07T05:25:44.410Z,15.40
2023-05-07T05:45:44.123Z,12.30
2023-05-07T06:05:43.825Z,12.20
2023-05-07T06:25:43.729Z,13.10
2023-05-07T06:45:43.342Z,12.40
2023-05-07T07:05:43.060Z,11.20
2023-05-07T07:25:42.788Z,12.50
2023-05-07T07:45:42.483Z,13.90
2023-05-07T08:05:42.197Z,10.80
2023-05-07T08:25:41.927Z,13.80
2023-05-07T08:45:41.650Z,11.50
2023-05-07T09:05:41.401Z,12.60
2023-05-07T09:25:41.073Z,12.20
2023-05-07T09:45:40.875Z,9.70
2023-05-07T10:05:40.525Z,13.60
2023-05-07T10:25:40.365Z,9.20
2023-05-07T10:45:39.990Z,8.70
2023-05-07T11:05:39.704Z,8.20
2023-05-07T11:25:39.445Z,8.10
2023-05-07T11:45:39.191Z,6.20
2023-05-07T12:05:38.884Z,9.10
2023-05-07T12:25:38.627Z,7.00
2023-05-07T12:45:38.331Z,5.60
2023-05-07T13:05:38.055Z,5.10
2023-05-07T13:25:39.179Z,5.00
2023-05-07T13:45:37.511Z,4.50
2023-05-07T14:05:37.179Z,5.50
2023-05-07T14:25:36.894Z,7.30
2023-05-07T14:45:36.648Z,7.30
2023-05-07T15:05:36.324Z,8.30
2023-05-07T15:25:36.080Z,6.80
2023-05-07T15:45:35.798Z,6.80
2023-05-07T16:05:35.478Z,6.30
2023-05-07T16:25:35.242Z,4.70
2023-05-07T16:45:34.960Z,6.30
2023-05-07T17:05:34.684Z,3.50
2023-05-07T17:25:34.349Z,5.30
2023-05-07T17:45:34.102Z,5.00
2023-05-07T18:05:33.812Z,3.50
2023-05-07T18:25:33.521Z,4.70
2023-05-07T18:45:33.365Z,3.30
2023-05-07T19:05:32.980Z,2.60
2023-05-07T19:25:32.761Z,5.50
2023-05-07T19:45:32.416Z,5.10
2023-05-07T20:05:32.172Z,5.70
2023-05-07T20:25:31.881Z,5.10
2023-05-07T20:45:31.603Z,4.20
2023-05-07T21:05:31.308Z,5.50
2023-05-07T21:25:31.036Z,3.70
2023-05-07T21:45:30.810Z,4.50
2023-05-07T22:05:30.546Z,6.10
2023-05-07T22:25:30.217Z,4.90
2023-05-07T22:45:29.997Z,6.90
2023-05-07T23:05:29.643Z,8.30
2023-05-07T23:25:29.352Z,6.80
2023-05-07T23:45:29.092Z,6.70
